sensor_id;sensor_type;location;lat;lon;timestamp;temperature;humidity
69359;HTU21D;56520;49.066;8.660;2022-07-24T00:01:29;19.73;77.11
69359;HTU21D;56520;49.066;8.660;2022-07-24T00:03:54;19.73;77.20
69359;HTU21D;56520;49.066;8.660;2022-07-24T00:06:20;19.71;77.18
69359;HTU21D;56520;49.066;8.660;2022-07-24T00:08:45;19.69;77.04
69359;HTU21D;56520;49.066;8.660;2022-07-24T00:11:11;19.65;77.06
69359;HTU21D;56520;49.066;8.660;2022-07-24T00:13:37;19.62;77.15
69359;HTU21D;56520;49.066;8.660;2022-07-24T00:16:02;19.57;77.09
69359;HTU21D;56520;49.066;8.660;2022-07-24T00:18:28;19.55;77.23
69359;HTU21D;56520;49.066;8.660;2022-07-24T00:20:53;19.50;77.41
69359;HTU21D;56520;49.066;8.660;2022-07-24T00:23:19;19.41;77.57
69359;HTU21D;56520;49.066;8.660;2022-07-24T00:25:44;19.35;77.73
69359;HTU21D;56520;49.066;8.660;2022-07-24T00:28:10;19.28;77.87
69359;HTU21D;56520;49.066;8.660;2022-07-24T00:30:35;19.22;78.00
69359;HTU21D;56520;49.066;8.660;2022-07-24T00:33:03;19.17;78.18
69359;HTU21D;56520;49.066;8.660;2022-07-24T00:35:28;19.13;78.18
69359;HTU21D;56520;49.066;8.660;2022-07-24T00:37:54;19.09;78.39
69359;HTU21D;56520;49.066;8.660;2022-07-24T00:40:19;19.06;78.43
69359;HTU21D;56520;49.066;8.660;2022-07-24T00:42:45;19.02;78.46
69359;HTU21D;56520;49.066;8.660;2022-07-24T00:45:11;19.02;78.73
69359;HTU21D;56520;49.066;8.660;2022-07-24T00:47:36;19.00;78.81
69359;HTU21D;56520;49.066;8.660;2022-07-24T00:50:02;19.00;79.06
69359;HTU21D;56520;49.066;8.660;2022-07-24T00:52:30;19.00;79.29
69359;HTU21D;56520;49.066;8.660;2022-07-24T00:54:55;18.99;79.30
69359;HTU21D;56520;49.066;8.660;2022-07-24T00:57:21;18.99;79.37
69359;HTU21D;56520;49.066;8.660;2022-07-24T00:59:46;18.99;79.39
69359;HTU21D;56520;49.066;8.660;2022-07-24T01:02:12;18.99;79.46
69359;HTU21D;56520;49.066;8.660;2022-07-24T01:04:38;19.00;79.53
69359;HTU21D;56520;49.066;8.660;2022-07-24T01:07:05;19.00;79.78
69359;HTU21D;56520;49.066;8.660;2022-07-24T01:09:31;19.00;79.72
69359;HTU21D;56520;49.066;8.660;2022-07-24T01:11:56;19.01;79.90
69359;HTU21D;56520;49.066;8.660;2022-07-24T01:14:23;19.01;79.95
69359;HTU21D;56520;49.066;8.660;2022-07-24T01:16:48;19.01;80.00
69359;HTU21D;56520;49.066;8.660;2022-07-24T01:19:14;19.01;80.40
69359;HTU21D;56520;49.066;8.660;2022-07-24T01:21:47;19.00;80.29
69359;HTU21D;56520;49.066;8.660;2022-07-24T01:24:13;18.99;80.18
69359;HTU21D;56520;49.066;8.660;2022-07-24T01:26:39;18.98;80.07
69359;HTU21D;56520;49.066;8.660;2022-07-24T01:29:04;18.96;80.16
69359;HTU21D;56520;49.066;8.660;2022-07-24T01:31:30;18.91;80.19
69359;HTU21D;56520;49.066;8.660;2022-07-24T01:33:56;18.88;80.19
69359;HTU21D;56520;49.066;8.660;2022-07-24T01:36:21;18.84;80.05
69359;HTU21D;56520;49.066;8.660;2022-07-24T01:38:47;18.82;80.11
69359;HTU21D;56520;49.066;8.660;2022-07-24T01:41:13;18.79;80.28
69359;HTU21D;56520;49.066;8.660;2022-07-24T01:43:38;18.78;80.30
69359;HTU21D;56520;49.066;8.660;2022-07-24T01:46:06;18.74;80.43
69359;HTU21D;56520;49.066;8.660;2022-07-24T01:48:32;18.73;80.37
69359;HTU21D;56520;49.066;8.660;2022-07-24T01:50:57;18.71;80.43
69359;HTU21D;56520;49.066;8.660;2022-07-24T01:53:23;18.70;80.52
69359;HTU21D;56520;49.066;8.660;2022-07-24T01:55:50;18.69;80.56
69359;HTU21D;56520;49.066;8.660;2022-07-24T01:58:16;18.67;80.52
69359;HTU21D;56520;49.066;8.660;2022-07-24T02:00:42;18.65;80.48
69359;HTU21D;56520;49.066;8.660;2022-07-24T02:03:07;18.62;80.40
69359;HTU21D;56520;49.066;8.660;2022-07-24T02:05:33;18.58;80.49
69359;HTU21D;56520;49.066;8.660;2022-07-24T02:08:00;18.55;80.59
69359;HTU21D;56520;49.066;8.660;2022-07-24T02:10:27;18.53;80.69
69359;HTU21D;56520;49.066;8.660;2022-07-24T02:12:53;18.50;80.70
69359;HTU21D;56520;49.066;8.660;2022-07-24T02:15:19;18.47;80.74
69359;HTU21D;56520;49.066;8.660;2022-07-24T02:17:49;18.44;80.73
69359;HTU21D;56520;49.066;8.660;2022-07-24T02:20:15;18.38;80.81
69359;HTU21D;56520;49.066;8.660;2022-07-24T02:22:41;18.32;81.00
69359;HTU21D;56520;49.066;8.660;2022-07-24T02:25:08;18.22;81.10
69359;HTU21D;56520;49.066;8.660;2022-07-24T02:27:34;18.13;81.20
69359;HTU21D;56520;49.066;8.660;2022-07-24T02:29:59;18.08;81.34
69359;HTU21D;56520;49.066;8.660;2022-07-24T02:32:25;18.06;81.45
69359;HTU21D;56520;49.066;8.660;2022-07-24T02:34:50;18.02;81.65
69359;HTU21D;56520;49.066;8.660;2022-07-24T02:37:16;18.00;81.72
69359;HTU21D;56520;49.066;8.660;2022-07-24T02:39:42;17.97;82.15
69359;HTU21D;56520;49.066;8.660;2022-07-24T02:42:08;17.90;82.32
69359;HTU21D;56520;49.066;8.660;2022-07-24T02:44:33;17.83;82.52
69359;HTU21D;56520;49.066;8.660;2022-07-24T02:46:59;17.83;82.56
69359;HTU21D;56520;49.066;8.660;2022-07-24T02:49:24;17.83;82.58
69359;HTU21D;56520;49.066;8.660;2022-07-24T02:51:50;17.85;82.68
69359;HTU21D;56520;49.066;8.660;2022-07-24T02:54:15;17.84;82.77
69359;HTU21D;56520;49.066;8.660;2022-07-24T02:56:41;17.85;82.78
69359;HTU21D;56520;49.066;8.660;2022-07-24T02:59:06;17.84;82.79
69359;HTU21D;56520;49.066;8.660;2022-07-24T03:01:32;17.84;82.93
69359;HTU21D;56520;49.066;8.660;2022-07-24T03:03:57;17.82;83.10
69359;HTU21D;56520;49.066;8.660;2022-07-24T03:06:22;17.82;82.92
69359;HTU21D;56520;49.066;8.660;2022-07-24T03:08:48;17.81;82.91
69359;HTU21D;56520;49.066;8.660;2022-07-24T03:11:13;17.79;82.95
69359;HTU21D;56520;49.066;8.660;2022-07-24T03:13:39;17.77;82.87
69359;HTU21D;56520;49.066;8.660;2022-07-24T03:16:05;17.76;82.77
69359;HTU21D;56520;49.066;8.660;2022-07-24T03:18:30;17.73;82.79
69359;HTU21D;56520;49.066;8.660;2022-07-24T03:20:56;17.69;82.70
69359;HTU21D;56520;49.066;8.660;2022-07-24T03:23:21;17.66;82.70
69359;HTU21D;56520;49.066;8.660;2022-07-24T03:25:47;17.61;82.78
69359;HTU21D;56520;49.066;8.660;2022-07-24T03:28:12;17.55;82.88
69359;HTU21D;56520;49.066;8.660;2022-07-24T03:30:38;17.50;83.05
69359;HTU21D;56520;49.066;8.660;2022-07-24T03:33:03;17.45;83.12
69359;HTU21D;56520;49.066;8.660;2022-07-24T03:35:29;17.43;83.20
69359;HTU21D;56520;49.066;8.660;2022-07-24T03:37:54;17.39;83.30
69359;HTU21D;56520;49.066;8.660;2022-07-24T03:40:20;17.37;83.16
69359;HTU21D;56520;49.066;8.660;2022-07-24T03:42:46;17.35;83.17
69359;HTU21D;56520;49.066;8.660;2022-07-24T03:45:11;17.32;83.18
69359;HTU21D;56520;49.066;8.660;2022-07-24T03:47:37;17.32;83.26
69359;HTU21D;56520;49.066;8.660;2022-07-24T03:50:03;17.29;83.45
69359;HTU21D;56520;49.066;8.660;2022-07-24T03:52:28;17.29;83.59
69359;HTU21D;56520;49.066;8.660;2022-07-24T03:55:03;17.29;83.69
69359;HTU21D;56520;49.066;8.660;2022-07-24T03:57:29;17.30;83.92
69359;HTU21D;56520;49.066;8.660;2022-07-24T03:59:54;17.29;84.00
69359;HTU21D;56520;49.066;8.660;2022-07-24T04:02:20;17.28;84.00
69359;HTU21D;56520;49.066;8.660;2022-07-24T04:04:45;17.28;84.08
69359;HTU21D;56520;49.066;8.660;2022-07-24T04:07:11;17.25;84.16
69359;HTU21D;56520;49.066;8.660;2022-07-24T04:09:36;17.25;84.44
69359;HTU21D;56520;49.066;8.660;2022-07-24T04:12:02;17.26;84.52
69359;HTU21D;56520;49.066;8.660;2022-07-24T04:14:27;17.28;84.60
69359;HTU21D;56520;49.066;8.660;2022-07-24T04:16:53;17.30;84.63
69359;HTU21D;56520;49.066;8.660;2022-07-24T04:19:18;17.32;84.58
69359;HTU21D;56520;49.066;8.660;2022-07-24T04:21:44;17.31;84.59
69359;HTU21D;56520;49.066;8.660;2022-07-24T04:24:09;17.34;84.58
69359;HTU21D;56520;49.066;8.660;2022-07-24T04:26:35;17.32;84.58
69359;HTU21D;56520;49.066;8.660;2022-07-24T04:29:00;17.34;84.52
69359;HTU21D;56520;49.066;8.660;2022-07-24T04:31:25;17.31;84.39
69359;HTU21D;56520;49.066;8.660;2022-07-24T04:33:51;17.29;84.32
69359;HTU21D;56520;49.066;8.660;2022-07-24T04:36:16;17.29;84.26
69359;HTU21D;56520;49.066;8.660;2022-07-24T04:38:42;17.24;84.21
69359;HTU21D;56520;49.066;8.660;2022-07-24T04:41:07;17.24;84.27
69359;HTU21D;56520;49.066;8.660;2022-07-24T04:43:32;17.25;84.25
69359;HTU21D;56520;49.066;8.660;2022-07-24T04:45:59;17.24;84.07
69359;HTU21D;56520;49.066;8.660;2022-07-24T04:48:24;17.23;84.03
69359;HTU21D;56520;49.066;8.660;2022-07-24T04:50:51;17.22;84.03
69359;HTU21D;56520;49.066;8.660;2022-07-24T04:53:16;17.23;84.07
69359;HTU21D;56520;49.066;8.660;2022-07-24T04:55:42;17.22;84.10
69359;HTU21D;56520;49.066;8.660;2022-07-24T04:58:07;17.22;84.10
69359;HTU21D;56520;49.066;8.660;2022-07-24T05:00:33;17.23;84.16
69359;HTU21D;56520;49.066;8.660;2022-07-24T05:02:58;17.26;84.23
69359;HTU21D;56520;49.066;8.660;2022-07-24T05:05:23;17.31;84.41
69359;HTU21D;56520;49.066;8.660;2022-07-24T05:07:49;17.38;84.35
69359;HTU21D;56520;49.066;8.660;2022-07-24T05:10:14;17.45;84.30
69359;HTU21D;56520;49.066;8.660;2022-07-24T05:12:40;17.51;84.37
69359;HTU21D;56520;49.066;8.660;2022-07-24T05:15:06;17.56;84.32
69359;HTU21D;56520;49.066;8.660;2022-07-24T05:17:33;17.64;84.31
69359;HTU21D;56520;49.066;8.660;2022-07-24T05:19:59;17.70;84.23
69359;HTU21D;56520;49.066;8.660;2022-07-24T05:22:24;17.76;84.39
69359;HTU21D;56520;49.066;8.660;2022-07-24T05:24:50;17.81;84.32
69359;HTU21D;56520;49.066;8.660;2022-07-24T05:27:15;17.88;84.32
69359;HTU21D;56520;49.066;8.660;2022-07-24T05:29:40;17.92;84.36
69359;HTU21D;56520;49.066;8.660;2022-07-24T05:32:06;17.99;84.29
69359;HTU21D;56520;49.066;8.660;2022-07-24T05:34:32;18.06;84.28
69359;HTU21D;56520;49.066;8.660;2022-07-24T05:36:57;18.12;84.29
69359;HTU21D;56520;49.066;8.660;2022-07-24T05:39:22;18.22;84.22
69359;HTU21D;56520;49.066;8.660;2022-07-24T05:41:48;18.29;84.08
69359;HTU21D;56520;49.066;8.660;2022-07-24T05:44:13;18.36;84.03
69359;HTU21D;56520;49.066;8.660;2022-07-24T05:46:39;18.46;83.87
69359;HTU21D;56520;49.066;8.660;2022-07-24T05:49:04;18.55;83.72
69359;HTU21D;56520;49.066;8.660;2022-07-24T05:51:29;18.61;83.61
69359;HTU21D;56520;49.066;8.660;2022-07-24T05:53:55;18.68;83.55
69359;HTU21D;56520;49.066;8.660;2022-07-24T05:56:20;18.78;83.45
69359;HTU21D;56520;49.066;8.660;2022-07-24T05:58:46;18.86;83.32
69359;HTU21D;56520;49.066;8.660;2022-07-24T06:01:11;18.95;83.07
69359;HTU21D;56520;49.066;8.660;2022-07-24T06:03:36;19.01;82.97
69359;HTU21D;56520;49.066;8.660;2022-07-24T06:06:04;19.11;82.70
69359;HTU21D;56520;49.066;8.660;2022-07-24T06:08:29;19.21;82.33
69359;HTU21D;56520;49.066;8.660;2022-07-24T06:10:55;19.30;82.15
69359;HTU21D;56520;49.066;8.660;2022-07-24T06:13:20;19.40;81.84
69359;HTU21D;56520;49.066;8.660;2022-07-24T06:15:45;19.52;80.83
69359;HTU21D;56520;49.066;8.660;2022-07-24T06:18:11;19.62;79.39
69359;HTU21D;56520;49.066;8.660;2022-07-24T06:20:36;19.72;79.29
69359;HTU21D;56520;49.066;8.660;2022-07-24T06:23:02;19.82;78.84
69359;HTU21D;56520;49.066;8.660;2022-07-24T06:25:27;19.94;78.63
69359;HTU21D;56520;49.066;8.660;2022-07-24T06:27:52;20.00;78.51
69359;HTU21D;56520;49.066;8.660;2022-07-24T06:30:24;20.10;78.43
69359;HTU21D;56520;49.066;8.660;2022-07-24T06:32:52;20.16;78.12
69359;HTU21D;56520;49.066;8.660;2022-07-24T06:35:18;20.34;76.24
69359;HTU21D;56520;49.066;8.660;2022-07-24T06:37:43;20.50;74.99
69359;HTU21D;56520;49.066;8.660;2022-07-24T06:40:09;20.66;73.46
69359;HTU21D;56520;49.066;8.660;2022-07-24T06:42:35;20.80;73.65
69359;HTU21D;56520;49.066;8.660;2022-07-24T06:45:01;20.90;73.07
69359;HTU21D;56520;49.066;8.660;2022-07-24T06:47:26;21.01;73.27
69359;HTU21D;56520;49.066;8.660;2022-07-24T06:49:53;21.07;73.06
69359;HTU21D;56520;49.066;8.660;2022-07-24T06:52:18;21.16;72.90
69359;HTU21D;56520;49.066;8.660;2022-07-24T06:54:44;21.21;72.21
69359;HTU21D;56520;49.066;8.660;2022-07-24T06:57:10;21.28;72.29
69359;HTU21D;56520;49.066;8.660;2022-07-24T06:59:35;21.33;72.60
69359;HTU21D;56520;49.066;8.660;2022-07-24T07:02:00;21.39;72.81
69359;HTU21D;56520;49.066;8.660;2022-07-24T07:04:26;21.45;72.32
69359;HTU21D;56520;49.066;8.660;2022-07-24T07:06:51;21.55;71.42
69359;HTU21D;56520;49.066;8.660;2022-07-24T07:09:17;21.68;71.39
69359;HTU21D;56520;49.066;8.660;2022-07-24T07:11:42;21.79;71.19
69359;HTU21D;56520;49.066;8.660;2022-07-24T07:14:07;21.91;70.24
69359;HTU21D;56520;49.066;8.660;2022-07-24T07:16:33;22.05;69.20
69359;HTU21D;56520;49.066;8.660;2022-07-24T07:18:59;22.17;68.17
69359;HTU21D;56520;49.066;8.660;2022-07-24T07:21:24;22.21;68.91
69359;HTU21D;56520;49.066;8.660;2022-07-24T07:23:49;22.29;68.76
69359;HTU21D;56520;49.066;8.660;2022-07-24T07:26:15;22.43;67.61
69359;HTU21D;56520;49.066;8.660;2022-07-24T07:28:40;22.57;66.88
69359;HTU21D;56520;49.066;8.660;2022-07-24T07:31:06;22.70;65.43
69359;HTU21D;56520;49.066;8.660;2022-07-24T07:33:31;22.79;65.38
69359;HTU21D;56520;49.066;8.660;2022-07-24T07:35:57;22.84;65.72
69359;HTU21D;56520;49.066;8.660;2022-07-24T07:38:25;22.91;63.57
69359;HTU21D;56520;49.066;8.660;2022-07-24T07:40:50;22.98;64.27
69359;HTU21D;56520;49.066;8.660;2022-07-24T07:43:19;23.09;63.08
69359;HTU21D;56520;49.066;8.660;2022-07-24T07:45:44;23.23;62.60
69359;HTU21D;56520;49.066;8.660;2022-07-24T07:48:10;23.38;61.14
69359;HTU21D;56520;49.066;8.660;2022-07-24T07:50:35;23.50;61.26
69359;HTU21D;56520;49.066;8.660;2022-07-24T07:53:00;23.57;61.34
69359;HTU21D;56520;49.066;8.660;2022-07-24T07:55:26;23.62;61.82
69359;HTU21D;56520;49.066;8.660;2022-07-24T07:57:51;23.75;60.02
69359;HTU21D;56520;49.066;8.660;2022-07-24T08:00:17;23.86;60.27
69359;HTU21D;56520;49.066;8.660;2022-07-24T08:02:43;23.95;60.21
69359;HTU21D;56520;49.066;8.660;2022-07-24T08:05:09;24.05;60.19
69359;HTU21D;56520;49.066;8.660;2022-07-24T08:07:34;24.20;59.28
69359;HTU21D;56520;49.066;8.660;2022-07-24T08:10:00;24.27;58.98
69359;HTU21D;56520;49.066;8.660;2022-07-24T08:12:25;24.36;58.48
69359;HTU21D;56520;49.066;8.660;2022-07-24T08:14:51;24.46;58.51
69359;HTU21D;56520;49.066;8.660;2022-07-24T08:17:16;24.54;57.91
69359;HTU21D;56520;49.066;8.660;2022-07-24T08:19:41;24.61;57.83
69359;HTU21D;56520;49.066;8.660;2022-07-24T08:22:07;24.69;57.94
69359;HTU21D;56520;49.066;8.660;2022-07-24T08:24:33;24.85;56.90
69359;HTU21D;56520;49.066;8.660;2022-07-24T08:26:59;24.94;55.40
69359;HTU21D;56520;49.066;8.660;2022-07-24T08:29:25;25.02;56.59
69359;HTU21D;56520;49.066;8.660;2022-07-24T08:31:51;25.10;56.91
69359;HTU21D;56520;49.066;8.660;2022-07-24T08:34:16;25.20;54.93
69359;HTU21D;56520;49.066;8.660;2022-07-24T08:36:42;25.39;54.07
69359;HTU21D;56520;49.066;8.660;2022-07-24T08:39:11;25.47;54.75
69359;HTU21D;56520;49.066;8.660;2022-07-24T08:41:37;25.61;53.61
69359;HTU21D;56520;49.066;8.660;2022-07-24T08:44:02;25.61;54.50
69359;HTU21D;56520;49.066;8.660;2022-07-24T08:46:30;25.73;53.45
69359;HTU21D;56520;49.066;8.660;2022-07-24T08:48:57;25.90;52.82
69359;HTU21D;56520;49.066;8.660;2022-07-24T08:51:23;26.05;52.80
69359;HTU21D;56520;49.066;8.660;2022-07-24T08:53:54;26.10;52.99
69359;HTU21D;56520;49.066;8.660;2022-07-24T08:56:20;26.20;53.43
69359;HTU21D;56520;49.066;8.660;2022-07-24T08:58:46;26.33;53.33
69359;HTU21D;56520;49.066;8.660;2022-07-24T09:01:11;26.42;53.25
69359;HTU21D;56520;49.066;8.660;2022-07-24T09:03:41;26.57;53.04
69359;HTU21D;56520;49.066;8.660;2022-07-24T09:06:07;26.77;51.72
69359;HTU21D;56520;49.066;8.660;2022-07-24T09:08:34;26.90;51.15
69359;HTU21D;56520;49.066;8.660;2022-07-24T09:11:01;27.06;51.18
69359;HTU21D;56520;49.066;8.660;2022-07-24T09:13:32;27.20;49.47
69359;HTU21D;56520;49.066;8.660;2022-07-24T09:16:21;27.36;48.90
69359;HTU21D;56520;49.066;8.660;2022-07-24T09:18:49;27.43;48.63
69359;HTU21D;56520;49.066;8.660;2022-07-24T09:21:16;27.44;48.50
69359;HTU21D;56520;49.066;8.660;2022-07-24T09:23:43;27.56;48.37
69359;HTU21D;56520;49.066;8.660;2022-07-24T09:26:08;27.68;47.96
69359;HTU21D;56520;49.066;8.660;2022-07-24T09:28:52;27.81;47.90
69359;HTU21D;56520;49.066;8.660;2022-07-24T09:31:18;27.97;46.78
69359;HTU21D;56520;49.066;8.660;2022-07-24T09:33:43;28.03;45.24
69359;HTU21D;56520;49.066;8.660;2022-07-24T09:36:14;27.96;45.38
69359;HTU21D;56520;49.066;8.660;2022-07-24T09:38:46;28.05;45.88
69359;HTU21D;56520;49.066;8.660;2022-07-24T09:41:19;28.29;45.97
69359;HTU21D;56520;49.066;8.660;2022-07-24T09:43:45;28.55;45.87
69359;HTU21D;56520;49.066;8.660;2022-07-24T09:46:11;28.84;45.64
69359;HTU21D;56520;49.066;8.660;2022-07-24T09:48:59;29.13;44.57
69359;HTU21D;56520;49.066;8.660;2022-07-24T09:51:26;29.23;43.85
69359;HTU21D;56520;49.066;8.660;2022-07-24T09:53:57;29.42;44.42
69359;HTU21D;56520;49.066;8.660;2022-07-24T09:56:24;29.75;43.83
69359;HTU21D;56520;49.066;8.660;2022-07-24T09:58:54;30.05;40.44
69359;HTU21D;56520;49.066;8.660;2022-07-24T10:01:22;30.24;40.29
69359;HTU21D;56520;49.066;8.660;2022-07-24T10:03:50;30.40;40.26
69359;HTU21D;56520;49.066;8.660;2022-07-24T10:06:25;30.56;40.26
69359;HTU21D;56520;49.066;8.660;2022-07-24T10:08:51;30.65;40.36
69359;HTU21D;56520;49.066;8.660;2022-07-24T10:11:18;30.84;38.99
69359;HTU21D;56520;49.066;8.660;2022-07-24T10:13:44;30.87;39.49
69359;HTU21D;56520;49.066;8.660;2022-07-24T10:21:16;31.27;37.86
69359;HTU21D;56520;49.066;8.660;2022-07-24T10:29:05;31.65;37.63
69359;HTU21D;56520;49.066;8.660;2022-07-24T10:31:34;31.61;36.85
69359;HTU21D;56520;49.066;8.660;2022-07-24T10:34:01;31.82;36.50
69359;HTU21D;56520;49.066;8.660;2022-07-24T10:36:33;31.86;35.39
69359;HTU21D;56520;49.066;8.660;2022-07-24T10:39:04;31.92;35.05
69359;HTU21D;56520;49.066;8.660;2022-07-24T10:41:35;31.99;35.09
69359;HTU21D;56520;49.066;8.660;2022-07-24T10:47:00;31.92;33.08
69359;HTU21D;56520;49.066;8.660;2022-07-24T10:49:39;31.66;34.27
69359;HTU21D;56520;49.066;8.660;2022-07-24T10:52:05;31.52;34.34
69359;HTU21D;56520;49.066;8.660;2022-07-24T10:54:31;31.38;34.31
69359;HTU21D;56520;49.066;8.660;2022-07-24T10:56:56;31.42;35.38
69359;HTU21D;56520;49.066;8.660;2022-07-24T10:59:36;31.82;35.44
69359;HTU21D;56520;49.066;8.660;2022-07-24T11:02:26;32.03;34.03
69359;HTU21D;56520;49.066;8.660;2022-07-24T11:18:40;32.84;33.43
69359;HTU21D;56520;49.066;8.660;2022-07-24T11:21:07;33.01;32.99
69359;HTU21D;56520;49.066;8.660;2022-07-24T11:23:33;33.15;33.18
69359;HTU21D;56520;49.066;8.660;2022-07-24T11:31:57;33.61;31.11
69359;HTU21D;56520;49.066;8.660;2022-07-24T11:34:24;33.61;30.58
69359;HTU21D;56520;49.066;8.660;2022-07-24T11:36:51;33.47;30.80
69359;HTU21D;56520;49.066;8.660;2022-07-24T11:39:18;33.36;30.64
69359;HTU21D;56520;49.066;8.660;2022-07-24T11:41:48;33.30;31.33
69359;HTU21D;56520;49.066;8.660;2022-07-24T11:44:22;33.36;30.45
69359;HTU21D;56520;49.066;8.660;2022-07-24T11:46:48;33.14;30.93
69359;HTU21D;56520;49.066;8.660;2022-07-24T11:49:13;33.05;31.16
69359;HTU21D;56520;49.066;8.660;2022-07-24T11:51:50;33.07;30.89
69359;HTU21D;56520;49.066;8.660;2022-07-24T11:54:27;33.16;31.46
69359;HTU21D;56520;49.066;8.660;2022-07-24T11:56:54;33.26;31.80
69359;HTU21D;56520;49.066;8.660;2022-07-24T11:59:29;33.49;30.61
69359;HTU21D;56520;49.066;8.660;2022-07-24T12:02:17;33.74;30.40
69359;HTU21D;56520;49.066;8.660;2022-07-24T12:04:42;33.99;31.21
69359;HTU21D;56520;49.066;8.660;2022-07-24T12:07:13;34.10;31.38
69359;HTU21D;56520;49.066;8.660;2022-07-24T12:14:44;33.81;29.77
69359;HTU21D;56520;49.066;8.660;2022-07-24T12:17:10;33.66;30.35
69359;HTU21D;56520;49.066;8.660;2022-07-24T12:19:36;33.50;30.45
69359;HTU21D;56520;49.066;8.660;2022-07-24T12:22:02;33.61;31.01
69359;HTU21D;56520;49.066;8.660;2022-07-24T12:24:30;33.48;29.89
69359;HTU21D;56520;49.066;8.660;2022-07-24T12:26:57;33.42;31.56
69359;HTU21D;56520;49.066;8.660;2022-07-24T12:29:25;33.60;30.44
69359;HTU21D;56520;49.066;8.660;2022-07-24T12:32:16;33.62;30.54
69359;HTU21D;56520;49.066;8.660;2022-07-24T12:34:46;33.70;31.15
69359;HTU21D;56520;49.066;8.660;2022-07-24T12:37:20;33.75;30.80
69359;HTU21D;56520;49.066;8.660;2022-07-24T12:39:50;33.85;30.26
69359;HTU21D;56520;49.066;8.660;2022-07-24T12:42:17;33.93;29.78
69359;HTU21D;56520;49.066;8.660;2022-07-24T12:44:44;33.80;29.70
69359;HTU21D;56520;49.066;8.660;2022-07-24T12:47:11;33.68;30.38
69359;HTU21D;56520;49.066;8.660;2022-07-24T12:49:44;33.72;30.61
69359;HTU21D;56520;49.066;8.660;2022-07-24T12:52:22;33.78;30.72
69359;HTU21D;56520;49.066;8.660;2022-07-24T12:54:50;33.86;28.60
69359;HTU21D;56520;49.066;8.660;2022-07-24T12:57:15;33.71;30.37
69359;HTU21D;56520;49.066;8.660;2022-07-24T12:59:45;33.64;30.51
69359;HTU21D;56520;49.066;8.660;2022-07-24T13:02:20;33.63;30.98
69359;HTU21D;56520;49.066;8.660;2022-07-24T13:04:48;33.70;30.03
69359;HTU21D;56520;49.066;8.660;2022-07-24T13:07:15;33.61;30.41
69359;HTU21D;56520;49.066;8.660;2022-07-24T13:09:41;33.62;30.85
69359;HTU21D;56520;49.066;8.660;2022-07-24T13:12:09;33.58;29.77
69359;HTU21D;56520;49.066;8.660;2022-07-24T13:14:36;33.22;30.54
69359;HTU21D;56520;49.066;8.660;2022-07-24T13:17:10;33.23;31.04
69359;HTU21D;56520;49.066;8.660;2022-07-24T13:19:46;33.22;30.65
69359;HTU21D;56520;49.066;8.660;2022-07-24T13:22:16;32.89;30.58
69359;HTU21D;56520;49.066;8.660;2022-07-24T13:24:42;32.70;31.37
69359;HTU21D;56520;49.066;8.660;2022-07-24T13:27:09;32.87;31.52
69359;HTU21D;56520;49.066;8.660;2022-07-24T13:29:36;33.02;31.42
69359;HTU21D;56520;49.066;8.660;2022-07-24T13:32:05;33.06;32.13
69359;HTU21D;56520;49.066;8.660;2022-07-24T13:34:30;33.40;31.25
69359;HTU21D;56520;49.066;8.660;2022-07-24T13:36:56;33.71;31.10
69359;HTU21D;56520;49.066;8.660;2022-07-24T13:39:23;33.76;30.83
69359;HTU21D;56520;49.066;8.660;2022-07-24T13:41:48;33.76;30.50
69359;HTU21D;56520;49.066;8.660;2022-07-24T13:44:14;33.81;30.74
69359;HTU21D;56520;49.066;8.660;2022-07-24T13:46:41;33.95;30.04
69359;HTU21D;56520;49.066;8.660;2022-07-24T13:49:07;34.09;29.86
69359;HTU21D;56520;49.066;8.660;2022-07-24T13:51:34;34.04;29.50
69359;HTU21D;56520;49.066;8.660;2022-07-24T13:54:00;33.99;30.06
69359;HTU21D;56520;49.066;8.660;2022-07-24T13:56:25;34.04;29.76
69359;HTU21D;56520;49.066;8.660;2022-07-24T13:58:52;34.14;30.04
69359;HTU21D;56520;49.066;8.660;2022-07-24T14:01:20;34.26;30.10
69359;HTU21D;56520;49.066;8.660;2022-07-24T14:03:46;34.31;29.88
69359;HTU21D;56520;49.066;8.660;2022-07-24T14:06:12;34.29;29.91
69359;HTU21D;56520;49.066;8.660;2022-07-24T14:08:38;34.33;28.61
69359;HTU21D;56520;49.066;8.660;2022-07-24T14:11:05;34.09;29.16
69359;HTU21D;56520;49.066;8.660;2022-07-24T14:13:31;34.12;29.53
69359;HTU21D;56520;49.066;8.660;2022-07-24T14:15:56;34.09;29.90
69359;HTU21D;56520;49.066;8.660;2022-07-24T14:18:22;34.09;28.99
69359;HTU21D;56520;49.066;8.660;2022-07-24T14:20:47;33.89;29.76
69359;HTU21D;56520;49.066;8.660;2022-07-24T14:23:13;33.74;29.29
69359;HTU21D;56520;49.066;8.660;2022-07-24T14:25:39;33.42;29.93
69359;HTU21D;56520;49.066;8.660;2022-07-24T14:28:04;33.23;30.64
69359;HTU21D;56520;49.066;8.660;2022-07-24T14:30:31;33.38;30.92
69359;HTU21D;56520;49.066;8.660;2022-07-24T14:32:56;33.70;31.09
69359;HTU21D;56520;49.066;8.660;2022-07-24T14:35:22;33.91;30.60
69359;HTU21D;56520;49.066;8.660;2022-07-24T14:37:47;33.99;30.27
69359;HTU21D;56520;49.066;8.660;2022-07-24T14:40:13;33.97;30.09
69359;HTU21D;56520;49.066;8.660;2022-07-24T14:42:38;34.01;30.09
69359;HTU21D;56520;49.066;8.660;2022-07-24T14:45:05;33.88;29.70
69359;HTU21D;56520;49.066;8.660;2022-07-24T14:47:31;33.77;30.58
69359;HTU21D;56520;49.066;8.660;2022-07-24T14:49:57;33.88;30.52
69359;HTU21D;56520;49.066;8.660;2022-07-24T14:52:23;33.94;30.14
69359;HTU21D;56520;49.066;8.660;2022-07-24T14:54:49;33.87;29.84
69359;HTU21D;56520;49.066;8.660;2022-07-24T14:57:15;33.86;30.32
69359;HTU21D;56520;49.066;8.660;2022-07-24T14:59:41;34.03;29.91
69359;HTU21D;56520;49.066;8.660;2022-07-24T15:02:10;34.09;29.40
69359;HTU21D;56520;49.066;8.660;2022-07-24T15:04:36;34.11;29.89
69359;HTU21D;56520;49.066;8.660;2022-07-24T15:07:02;34.19;29.99
69359;HTU21D;56520;49.066;8.660;2022-07-24T15:09:31;34.10;29.71
69359;HTU21D;56520;49.066;8.660;2022-07-24T15:11:56;33.74;29.39
69359;HTU21D;56520;49.066;8.660;2022-07-24T15:14:22;33.37;30.74
69359;HTU21D;56520;49.066;8.660;2022-07-24T15:16:47;33.22;30.67
69359;HTU21D;56520;49.066;8.660;2022-07-24T15:19:14;33.11;31.03
69359;HTU21D;56520;49.066;8.660;2022-07-24T15:21:39;33.17;31.57
69359;HTU21D;56520;49.066;8.660;2022-07-24T15:24:05;33.29;31.28
69359;HTU21D;56520;49.066;8.660;2022-07-24T15:26:31;33.41;30.83
69359;HTU21D;56520;49.066;8.660;2022-07-24T15:28:57;33.34;30.76
69359;HTU21D;56520;49.066;8.660;2022-07-24T15:31:22;33.40;31.21
69359;HTU21D;56520;49.066;8.660;2022-07-24T15:33:48;33.63;31.26
69359;HTU21D;56520;49.066;8.660;2022-07-24T15:36:14;33.88;30.80
69359;HTU21D;56520;49.066;8.660;2022-07-24T15:38:40;33.97;30.77
69359;HTU21D;56520;49.066;8.660;2022-07-24T15:41:05;34.12;30.52
69359;HTU21D;56520;49.066;8.660;2022-07-24T15:43:31;34.17;30.48
69359;HTU21D;56520;49.066;8.660;2022-07-24T15:45:56;34.18;30.36
69359;HTU21D;56520;49.066;8.660;2022-07-24T15:48:22;34.37;30.17
69359;HTU21D;56520;49.066;8.660;2022-07-24T15:50:48;35.09;29.35